createdAt,value
2023-02-21T00:00:03.741Z,534.89
2023-02-21T00:00:14.748Z,535.04
2023-02-21T00:00:25.761Z,534.95
2023-02-21T00:00:36.764Z,535.15
2023-02-21T00:00:48.773Z,535.12
2023-02-21T00:01:00.743Z,535.15
2023-02-21T00:01:12.022Z,535.06
2023-02-21T00:01:22.807Z,535.20
2023-02-21T00:01:34.766Z,535.22
2023-02-21T00:01:45.836Z,535.22
2023-02-21T00:01:56.807Z,535.11
2023-02-21T00:02:08.786Z,534.94
2023-02-21T00:02:20.840Z,534.75
2023-02-21T00:02:32.761Z,534.92
2023-02-21T00:02:43.773Z,534.81
2023-02-21T00:02:55.739Z,534.90
2023-02-21T00:03:06.765Z,534.59
2023-02-21T00:03:17.779Z,534.40
2023-02-21T00:03:29.742Z,534.20
2023-02-21T00:03:40.748Z,534.16
2023-02-21T00:03:51.748Z,534.34
2023-02-21T00:04:02.755Z,534.45
2023-02-21T00:04:13.749Z,534.46
2023-02-21T00:04:24.815Z,534.32
2023-02-21T00:04:35.789Z,534.29
2023-02-21T00:04:47.767Z,534.29
2023-02-21T00:04:58.765Z,534.46
2023-02-21T00:05:10.394Z,534.45
2023-02-21T00:05:20.785Z,534.41
2023-02-21T00:05:32.794Z,534.48
2023-02-21T00:05:44.846Z,534.37
2023-02-21T00:05:56.845Z,534.27
2023-02-21T00:06:07.758Z,534.24
2023-02-21T00:06:18.810Z,534.17
2023-02-21T00:06:29.760Z,533.87
2023-02-21T00:06:40.769Z,533.88
2023-02-21T00:06:51.752Z,533.90
2023-02-21T00:07:02.749Z,533.87
2023-02-21T00:07:13.747Z,533.78
2023-02-21T00:07:24.746Z,533.83
2023-02-21T00:07:35.766Z,534.05
2023-02-21T00:07:47.737Z,534.13
2023-02-21T00:07:58.745Z,533.91
2023-02-21T00:08:09.747Z,533.90
2023-02-21T00:08:20.753Z,534.11
2023-02-21T00:08:31.734Z,534.14
2023-02-21T00:08:42.757Z,534.35
2023-02-21T00:08:53.772Z,534.10
2023-02-21T00:09:05.758Z,534.21
2023-02-21T00:09:16.762Z,534.27
2023-02-21T00:09:27.760Z,533.90
2023-02-21T00:09:38.760Z,533.87
2023-02-21T00:09:50.768Z,533.74
2023-02-21T00:10:01.805Z,533.78
2023-02-21T00:10:13.768Z,533.86
2023-02-21T00:10:24.767Z,533.90
2023-02-21T00:10:35.770Z,533.89
2023-02-21T00:10:46.767Z,533.83
2023-02-21T00:10:57.768Z,533.97
2023-02-21T00:11:08.770Z,534.34
2023-02-21T00:11:22.286Z,534.66
2023-02-21T00:11:32.741Z,534.60
2023-02-21T00:11:43.729Z,534.40
2023-02-21T00:11:54.763Z,534.27
2023-02-21T00:12:05.762Z,534.04
2023-02-21T00:12:16.752Z,534.05
2023-02-21T00:12:27.748Z,533.97
2023-02-21T00:12:38.765Z,533.89
2023-02-21T00:12:50.738Z,533.71
2023-02-21T00:13:01.730Z,533.74
2023-02-21T00:13:12.727Z,533.42
2023-02-21T00:13:23.742Z,533.43
2023-02-21T00:13:34.753Z,533.57
2023-02-21T00:13:45.744Z,533.47
2023-02-21T00:13:56.764Z,533.57
2023-02-21T00:14:07.764Z,533.54
2023-02-21T00:14:19.767Z,533.38
2023-02-21T00:14:30.772Z,533.57
2023-02-21T00:14:41.772Z,533.62
2023-02-21T00:14:53.752Z,533.54
2023-02-21T00:15:04.764Z,533.62
2023-02-21T00:15:15.779Z,533.72
2023-02-21T00:15:27.752Z,533.76
2023-02-21T00:15:38.762Z,533.62
2023-02-21T00:15:49.761Z,533.49
2023-02-21T00:16:01.757Z,533.52
2023-02-21T00:16:13.779Z,533.51
2023-02-21T00:16:24.846Z,533.47
2023-02-21T00:16:36.818Z,533.33
2023-02-21T00:16:47.785Z,533.36
2023-02-21T00:16:58.759Z,533.64
2023-02-21T00:17:09.757Z,533.58
2023-02-21T00:17:20.777Z,533.50
2023-02-21T00:17:32.746Z,533.22
2023-02-21T00:17:43.740Z,533.48
2023-02-21T00:17:54.741Z,533.63
2023-02-21T00:18:05.763Z,533.86
2023-02-21T00:18:16.762Z,533.82
2023-02-21T00:18:27.763Z,533.76
2023-02-21T00:18:38.764Z,533.77
2023-02-21T00:18:50.746Z,533.75
2023-02-21T00:19:01.749Z,533.80
2023-02-21T00:19:12.768Z,533.85
2023-02-21T00:19:24.744Z,533.80
2023-02-21T00:19:35.741Z,533.78
2023-02-21T00:19:46.750Z,533.88
2023-02-21T00:19:57.751Z,533.87
2023-02-21T00:20:08.769Z,533.88
2023-02-21T00:20:19.780Z,533.90
2023-02-21T00:20:31.769Z,533.88
2023-02-21T00:20:42.773Z,533.78
2023-02-21T00:20:54.737Z,533.68
2023-02-21T00:21:05.737Z,533.66
2023-02-21T00:21:16.733Z,533.55
2023-02-21T00:21:27.734Z,533.53
2023-02-21T00:21:38.741Z,533.56
2023-02-21T00:21:49.729Z,533.67
2023-02-21T00:22:00.748Z,533.74
2023-02-21T00:22:11.741Z,533.76
2023-02-21T00:22:22.761Z,533.94
2023-02-21T00:22:34.754Z,533.89
2023-02-21T00:22:45.758Z,533.85
2023-02-21T00:22:56.755Z,533.98
2023-02-21T00:23:07.751Z,534.02
2023-02-21T00:23:18.747Z,533.73
2023-02-21T00:23:29.757Z,533.86
2023-02-21T00:23:40.758Z,534.05
2023-02-21T00:23:51.747Z,534.07
2023-02-21T00:24:02.752Z,534.01
2023-02-21T00:24:14.748Z,533.92
2023-02-21T00:24:26.735Z,533.87
2023-02-21T00:24:37.733Z,533.77
2023-02-21T00:24:48.764Z,533.72
2023-02-21T00:24:59.771Z,533.56
2023-02-21T00:25:10.765Z,533.53
2023-02-21T00:25:21.762Z,533.51
2023-02-21T00:25:32.763Z,533.77
2023-02-21T00:25:44.740Z,533.83
2023-02-21T00:25:55.741Z,533.97
2023-02-21T00:26:06.737Z,534.12
2023-02-21T00:26:17.742Z,534.10
2023-02-21T00:26:28.792Z,534.00
2023-02-21T00:26:40.753Z,534.09
2023-02-21T00:26:51.743Z,533.96
2023-02-21T00:27:02.740Z,533.80
2023-02-21T00:27:13.764Z,533.90
2023-02-21T00:27:25.747Z,533.80
2023-02-21T00:27:36.753Z,533.51
2023-02-21T00:27:47.762Z,533.61
2023-02-21T00:27:58.759Z,533.78
2023-02-21T00:28:09.763Z,533.93
2023-02-21T00:28:20.754Z,533.94
2023-02-21T00:28:31.758Z,533.93
2023-02-21T00:28:43.776Z,533.63
2023-02-21T00:28:55.748Z,533.56
2023-02-21T00:29:06.742Z,533.91
2023-02-21T00:29:17.753Z,534.27
2023-02-21T00:29:29.746Z,534.18
2023-02-21T00:29:40.762Z,533.88
2023-02-21T00:29:51.764Z,533.90
2023-02-21T00:30:03.846Z,533.79
2023-02-21T00:30:14.800Z,533.83
2023-02-21T00:30:26.920Z,533.99
2023-02-21T00:30:37.834Z,533.83
2023-02-21T00:30:48.779Z,533.70
2023-02-21T00:30:59.814Z,533.50
2023-02-21T00:31:10.848Z,533.46
2023-02-21T00:31:21.822Z,534.08
2023-02-21T00:31:32.783Z,534.11
2023-02-21T00:31:44.758Z,534.02
2023-02-21T00:31:56.737Z,533.97
2023-02-21T00:32:07.721Z,534.03
2023-02-21T00:32:18.756Z,534.14
2023-02-21T00:32:29.797Z,534.10
2023-02-21T00:32:41.863Z,534.18
2023-02-21T00:32:53.826Z,534.16
2023-02-21T00:33:07.217Z,534.16
2023-02-21T00:33:16.751Z,534.22
2023-02-21T00:33:27.865Z,534.30
2023-02-21T00:33:39.762Z,534.27
2023-02-21T00:33:50.754Z,534.08
2023-02-21T00:34:01.762Z,534.03
2023-02-21T00:34:13.759Z,533.93
2023-02-21T00:34:25.766Z,533.91
2023-02-21T00:34:36.762Z,534.12
2023-02-21T00:34:47.760Z,534.02
2023-02-21T00:34:59.735Z,533.99
2023-02-21T00:35:10.755Z,534.08
2023-02-21T00:35:21.753Z,534.11
2023-02-21T00:35:32.761Z,534.02
2023-02-21T00:35:44.736Z,533.81
2023-02-21T00:35:55.725Z,534.07
2023-02-21T00:36:06.728Z,534.07
2023-02-21T00:36:17.754Z,534.16
2023-02-21T00:36:28.747Z,534.16
2023-02-21T00:36:39.754Z,534.08
2023-02-21T00:36:51.733Z,534.02
2023-02-21T00:37:03.760Z,534.02
2023-02-21T00:37:14.757Z,534.06
2023-02-21T00:37:25.760Z,534.08
2023-02-21T00:37:36.761Z,534.24
2023-02-21T00:37:47.764Z,534.36
2023-02-21T00:37:58.768Z,534.20
2023-02-21T00:38:10.740Z,534.00
2023-02-21T00:38:21.761Z,533.85
2023-02-21T00:38:33.743Z,533.69
2023-02-21T00:38:44.747Z,533.87
2023-02-21T00:38:55.755Z,534.07
2023-02-21T00:39:06.746Z,534.07
2023-02-21T00:39:17.739Z,533.84
2023-02-21T00:39:28.724Z,533.83
2023-02-21T00:39:39.724Z,533.84
2023-02-21T00:39:50.745Z,533.85
2023-02-21T00:40:01.763Z,533.83
2023-02-21T00:40:12.764Z,533.81
2023-02-21T00:40:24.766Z,533.73
2023-02-21T00:40:35.774Z,533.93
2023-02-21T00:40:47.749Z,533.99
2023-02-21T00:40:58.753Z,533.89
2023-02-21T00:41:09.764Z,533.76
2023-02-21T00:41:21.748Z,533.67
2023-02-21T00:41:32.750Z,533.66
2023-02-21T00:41:44.736Z,533.67
2023-02-21T00:41:55.734Z,533.50
2023-02-21T00:42:06.728Z,533.45
2023-02-21T00:42:17.722Z,533.47
2023-02-21T00:42:28.731Z,533.53
2023-02-21T00:42:40.753Z,533.42
2023-02-21T00:42:51.750Z,533.45
2023-02-21T00:43:02.738Z,533.54
2023-02-21T00:43:13.736Z,533.71
2023-02-21T00:43:24.728Z,533.75
2023-02-21T00:43:36.789Z,533.76
2023-02-21T00:43:47.742Z,533.64
2023-02-21T00:43:58.761Z,533.58
2023-02-21T00:44:09.769Z,533.67
2023-02-21T00:44:21.748Z,533.74
2023-02-21T00:44:32.759Z,533.60
2023-02-21T00:44:44.763Z,533.65
2023-02-21T00:44:56.734Z,533.68
2023-02-21T00:45:07.770Z,533.81
2023-02-21T00:45:19.734Z,533.70
2023-02-21T00:45:30.742Z,533.70
2023-02-21T00:45:41.761Z,533.91
2023-02-21T00:45:52.790Z,533.89
2023-02-21T00:46:04.795Z,534.07
2023-02-21T00:46:16.862Z,534.17
2023-02-21T00:46:28.759Z,534.19
2023-02-21T00:46:40.743Z,534.31
2023-02-21T00:46:51.732Z,534.32
2023-02-21T00:47:03.739Z,534.35
2023-02-21T00:47:14.736Z,534.50
2023-02-21T00:47:25.740Z,534.35
2023-02-21T00:47:36.758Z,534.22
2023-02-21T00:47:47.746Z,534.19
2023-02-21T00:47:58.763Z,534.25
2023-02-21T00:48:10.738Z,534.34
2023-02-21T00:48:21.718Z,534.14
2023-02-21T00:48:32.735Z,533.92
2023-02-21T00:48:43.774Z,533.84
2023-02-21T00:48:55.742Z,534.03
2023-02-21T00:49:06.745Z,533.88
2023-02-21T00:49:17.747Z,533.85
2023-02-21T00:49:29.745Z,533.90
2023-02-21T00:49:40.745Z,534.09
2023-02-21T00:49:51.740Z,534.15
2023-02-21T00:50:02.730Z,534.18
2023-02-21T00:50:13.721Z,534.24
2023-02-21T00:50:24.715Z,534.28
2023-02-21T00:50:35.742Z,534.02
2023-02-21T00:50:46.752Z,534.32
2023-02-21T00:50:57.760Z,534.53
2023-02-21T00:51:08.751Z,534.14
2023-02-21T00:51:19.768Z,533.92
2023-02-21T00:51:31.722Z,534.20
2023-02-21T00:51:42.716Z,534.31
2023-02-21T00:51:53.703Z,534.33
2023-02-21T00:52:04.722Z,534.36
2023-02-21T00:52:15.737Z,534.31
2023-02-21T00:52:26.737Z,534.15
2023-02-21T00:52:37.722Z,534.09
2023-02-21T00:52:48.721Z,534.06
2023-02-21T00:52:59.718Z,533.89
2023-02-21T00:53:10.733Z,533.87
2023-02-21T00:53:21.747Z,533.89
2023-02-21T00:53:32.739Z,534.02
2023-02-21T00:53:43.769Z,534.18
2023-02-21T00:53:55.740Z,534.34
2023-02-21T00:54:06.721Z,534.29
2023-02-21T00:54:17.723Z,534.17
2023-02-21T00:54:28.756Z,534.04
2023-02-21T00:54:40.730Z,533.98
2023-02-21T00:54:51.720Z,534.33
2023-02-21T00:55:02.805Z,534.45
2023-02-21T00:55:14.784Z,534.41
2023-02-21T00:55:26.769Z,534.46
2023-02-21T00:55:37.766Z,534.34
2023-02-21T00:55:48.772Z,534.32
2023-02-21T00:56:00.790Z,534.12
2023-02-21T00:56:12.766Z,534.29
2023-02-21T00:56:23.764Z,534.34
2023-02-21T00:56:35.746Z,534.38
2023-02-21T00:56:47.758Z,534.39
2023-02-21T00:56:59.738Z,534.42
2023-02-21T00:57:10.729Z,534.24
2023-02-21T00:57:21.719Z,534.28
2023-02-21T00:57:32.714Z,534.31
2023-02-21T00:57:43.805Z,534.49
2023-02-21T00:57:55.768Z,534.61
2023-02-21T00:58:07.780Z,534.71
2023-02-21T00:58:19.725Z,534.70
2023-02-21T00:58:30.750Z,534.72
2023-02-21T00:58:41.759Z,534.69
2023-02-21T00:58:52.764Z,534.83
2023-02-21T00:59:03.768Z,534.75
2023-02-21T00:59:15.743Z,534.59
2023-02-21T00:59:26.790Z,534.41
2023-02-21T00:59:38.760Z,534.84
2023-02-21T00:59:49.763Z,534.93
2023-02-21T01:00:01.752Z,534.89
2023-02-21T01:00:12.742Z,535.04
2023-02-21T01:00:24.743Z,534.90
2023-02-21T01:00:35.748Z,534.89
2023-02-21T01:00:46.757Z,534.96
2023-02-21T01:00:57.780Z,534.95
2023-02-21T01:01:09.855Z,534.92
2023-02-21T01:01:21.803Z,534.86
2023-02-21T01:01:33.800Z,535.00
2023-02-21T01:01:45.876Z,535.13
2023-02-21T01:01:57.760Z,535.09
2023-02-21T01:02:08.771Z,534.91
2023-02-21T01:02:20.736Z,534.90
2023-02-21T01:02:31.732Z,534.98
2023-02-21T01:02:42.714Z,535.04
2023-02-21T01:02:53.749Z,535.08
2023-02-21T01:03:04.760Z,535.08
2023-02-21T01:03:15.752Z,535.00
2023-02-21T01:03:26.779Z,534.97
2023-02-21T01:03:37.762Z,534.96
2023-02-21T01:03:49.731Z,534.99
2023-02-21T01:04:00.807Z,535.14
2023-02-21T01:04:11.732Z,535.25
2023-02-21T01:04:22.798Z,535.20
2023-02-21T01:04:33.835Z,535.28
2023-02-21T01:04:45.805Z,535.55
2023-02-21T01:04:57.800Z,535.46
2023-02-21T01:05:09.775Z,535.41
2023-02-21T01:05:21.742Z,535.35
2023-02-21T01:05:32.731Z,535.25
2023-02-21T01:05:43.725Z,535.21
2023-02-21T01:05:54.734Z,535.39
2023-02-21T01:06:05.751Z,535.49
2023-02-21T01:06:16.748Z,535.46
2023-02-21T01:06:27.762Z,535.33
2023-02-21T01:06:39.745Z,535.22
2023-02-21T01:06:50.746Z,535.02
2023-02-21T01:07:01.747Z,534.97
2023-02-21T01:07:12.748Z,535.02
2023-02-21T01:07:23.745Z,534.77
2023-02-21T01:07:34.753Z,535.01
2023-02-21T01:07:45.777Z,535.11
2023-02-21T01:07:57.746Z,534.91
2023-02-21T01:08:08.731Z,534.80
2023-02-21T01:08:19.743Z,534.78
2023-02-21T01:08:30.762Z,534.57
2023-02-21T01:08:42.742Z,534.47
2023-02-21T01:08:53.748Z,534.43
2023-02-21T01:09:04.763Z,534.36
2023-02-21T01:09:15.758Z,534.52
2023-02-21T01:09:26.754Z,534.40
2023-02-21T01:09:37.743Z,534.26
2023-02-21T01:09:48.741Z,534.42
2023-02-21T01:09:59.738Z,534.48
2023-02-21T01:10:10.738Z,534.36
2023-02-21T01:10:21.732Z,534.36
2023-02-21T01:10:32.751Z,534.23
2023-02-21T01:10:43.763Z,534.18
2023-02-21T01:10:54.762Z,534.24
2023-02-21T01:11:05.757Z,534.12
2023-02-21T01:11:16.746Z,534.20
2023-02-21T01:11:27.746Z,534.22
2023-02-21T01:11:38.713Z,534.39
2023-02-21T01:11:49.727Z,534.55
2023-02-21T01:12:00.732Z,534.32
2023-02-21T01:12:11.732Z,534.21
2023-02-21T01:12:22.746Z,534.21
2023-02-21T01:12:33.753Z,534.28
2023-02-21T01:12:44.744Z,534.26
2023-02-21T01:12:55.745Z,534.28
2023-02-21T01:13:06.741Z,534.31
2023-02-21T01:13:17.759Z,534.31
2023-02-21T01:13:28.784Z,534.28
2023-02-21T01:13:40.755Z,534.31
2023-02-21T01:13:52.756Z,534.43
2023-02-21T01:14:03.792Z,534.37
2023-02-21T01:14:15.783Z,534.26
2023-02-21T01:14:28.473Z,534.30
2023-02-21T01:14:38.721Z,534.19
2023-02-21T01:14:49.736Z,534.10
2023-02-21T01:15:00.736Z,534.01
2023-02-21T01:15:11.758Z,533.90
2023-02-21T01:15:22.750Z,533.92
2023-02-21T01:15:33.795Z,533.95
2023-02-21T01:15:44.774Z,534.00
2023-02-21T01:15:56.756Z,534.03
2023-02-21T01:16:08.874Z,533.98
2023-02-21T01:16:20.791Z,533.91
2023-02-21T01:16:32.764Z,533.95
2023-02-21T01:16:43.757Z,534.01
2023-02-21T01:16:57.322Z,534.07
2023-02-21T01:17:12.804Z,534.08
2023-02-21T01:17:17.767Z,534.06
2023-02-21T01:17:28.754Z,534.02
2023-02-21T01:17:39.762Z,533.99
2023-02-21T01:17:50.721Z,533.90
2023-02-21T01:18:01.748Z,533.81
2023-02-21T01:18:12.752Z,533.76
2023-02-21T01:18:23.758Z,533.81
2023-02-21T01:18:34.752Z,533.95
2023-02-21T01:18:45.759Z,533.96
2023-02-21T01:18:56.772Z,533.87
2023-02-21T01:19:07.773Z,533.94
2023-02-21T01:19:19.758Z,533.84
2023-02-21T01:19:30.748Z,533.91
2023-02-21T01:19:41.749Z,533.82
2023-02-21T01:19:52.756Z,533.81
2023-02-21T01:20:03.751Z,533.79
2023-02-21T01:20:14.752Z,533.65
2023-02-21T01:20:25.768Z,533.60
2023-02-21T01:20:36.769Z,533.65
2023-02-21T01:20:47.769Z,533.64
2023-02-21T01:20:59.748Z,533.63
2023-02-21T01:21:10.746Z,533.61
2023-02-21T01:21:21.742Z,533.61
2023-02-21T01:21:32.746Z,533.67
2023-02-21T01:21:44.730Z,533.60
2023-02-21T01:21:55.728Z,533.51
2023-02-21T01:22:06.733Z,533.60
2023-02-21T01:22:17.724Z,533.74
2023-02-21T01:22:28.742Z,533.73
2023-02-21T01:22:39.741Z,533.55
2023-02-21T01:22:50.743Z,533.48
2023-02-21T01:23:01.743Z,533.58
2023-02-21T01:23:12.785Z,533.61
2023-02-21T01:23:24.757Z,533.42
2023-02-21T01:23:35.758Z,533.52
2023-02-21T01:23:47.751Z,533.94
2023-02-21T01:23:58.749Z,533.85
2023-02-21T01:24:09.747Z,533.61
2023-02-21T01:24:20.748Z,533.53
2023-02-21T01:24:32.767Z,533.61
2023-02-21T01:24:43.777Z,533.67
2023-02-21T01:24:54.776Z,533.78
2023-02-21T01:25:05.767Z,533.81
2023-02-21T01:25:16.769Z,533.93
2023-02-21T01:25:27.773Z,533.94
2023-02-21T01:25:38.784Z,533.85
2023-02-21T01:25:50.748Z,533.70
2023-02-21T01:26:01.751Z,533.75
2023-02-21T01:26:12.759Z,533.87
2023-02-21T01:26:23.761Z,533.68
2023-02-21T01:26:34.758Z,533.74
2023-02-21T01:26:45.757Z,533.91
2023-02-21T01:26:56.764Z,534.13
2023-02-21T01:27:07.760Z,534.14
2023-02-21T01:27:18.758Z,534.14
2023-02-21T01:27:29.771Z,534.02
2023-02-21T01:27:40.759Z,533.89
2023-02-21T01:27:51.761Z,533.78
2023-02-21T01:28:02.765Z,533.70
2023-02-21T01:28:13.758Z,533.83
2023-02-21T01:28:25.748Z,533.98
2023-02-21T01:28:36.745Z,534.01
2023-02-21T01:28:47.734Z,534.09
2023-02-21T01:28:58.733Z,534.14
2023-02-21T01:29:09.733Z,534.16
2023-02-21T01:29:20.729Z,534.24
2023-02-21T01:29:31.729Z,534.11
2023-02-21T01:29:42.748Z,534.02
2023-02-21T01:29:53.763Z,534.13
2023-02-21T01:30:04.776Z,534.24
2023-02-21T01:30:16.831Z,534.18
2023-02-21T01:30:27.804Z,534.22
2023-02-21T01:30:38.940Z,534.08
2023-02-21T01:30:50.825Z,533.80
2023-02-21T01:31:01.755Z,533.84
2023-02-21T01:31:14.115Z,533.85
2023-02-21T01:31:25.746Z,534.17
2023-02-21T01:31:36.758Z,534.01
2023-02-21T01:31:47.768Z,533.99
2023-02-21T01:31:58.884Z,534.09
2023-02-21T01:32:10.803Z,534.14
2023-02-21T01:32:21.796Z,533.84
2023-02-21T01:32:33.776Z,533.87
2023-02-21T01:32:45.783Z,533.93
2023-02-21T01:32:57.772Z,533.78
2023-02-21T01:33:09.740Z,533.85
2023-02-21T01:33:20.749Z,534.02
2023-02-21T01:33:31.755Z,533.98
2023-02-21T01:33:43.791Z,533.97
2023-02-21T01:33:55.764Z,534.11
2023-02-21T01:34:06.773Z,534.22
2023-02-21T01:34:17.763Z,534.04
2023-02-21T01:34:28.763Z,533.80
2023-02-21T01:34:39.776Z,533.73
2023-02-21T01:34:50.766Z,533.69
2023-02-21T01:35:01.775Z,533.81
2023-02-21T01:35:12.778Z,533.82
2023-02-21T01:35:24.752Z,533.79
2023-02-21T01:35:35.756Z,533.88
2023-02-21T01:35:46.761Z,533.93
2023-02-21T01:35:57.762Z,533.80
2023-02-21T01:36:08.755Z,533.97
2023-02-21T01:36:20.764Z,533.90
2023-02-21T01:36:31.797Z,533.82
2023-02-21T01:36:43.763Z,533.65
2023-02-21T01:36:54.761Z,533.52
2023-02-21T01:37:06.755Z,533.23
2023-02-21T01:37:17.753Z,533.88
2023-02-21T01:37:28.755Z,534.25
2023-02-21T01:37:39.750Z,533.96
2023-02-21T01:37:50.747Z,534.03
2023-02-21T01:38:01.751Z,533.87
2023-02-21T01:38:12.753Z,533.87
2023-02-21T01:38:24.754Z,534.08
2023-02-21T01:38:35.773Z,533.95
2023-02-21T01:38:46.777Z,533.80
2023-02-21T01:38:58.759Z,533.86
2023-02-21T01:39:09.762Z,533.96
2023-02-21T01:39:21.755Z,533.96
2023-02-21T01:39:32.757Z,533.89
2023-02-21T01:39:43.751Z,534.04
2023-02-21T01:39:54.739Z,533.89
2023-02-21T01:40:05.743Z,533.90
2023-02-21T01:40:16.745Z,534.10
2023-02-21T01:40:27.743Z,534.25
2023-02-21T01:40:38.740Z,534.14
2023-02-21T01:40:49.741Z,534.10
2023-02-21T01:41:00.740Z,534.15
2023-02-21T01:41:11.972Z,534.16
2023-02-21T01:41:23.746Z,534.30
2023-02-21T01:41:34.759Z,534.45
2023-02-21T01:41:45.758Z,534.42
2023-02-21T01:41:56.758Z,534.47
2023-02-21T01:42:07.773Z,534.41
2023-02-21T01:42:18.776Z,534.51
2023-02-21T01:42:29.769Z,534.68
2023-02-21T01:42:41.739Z,534.59
2023-02-21T01:42:52.738Z,534.33
2023-02-21T01:43:03.717Z,534.28
2023-02-21T01:43:14.806Z,534.53
2023-02-21T01:43:26.761Z,534.62
2023-02-21T01:43:37.763Z,534.64
2023-02-21T01:43:48.754Z,534.60
2023-02-21T01:43:59.742Z,534.95
2023-02-21T01:44:10.741Z,534.88
2023-02-21T01:44:21.734Z,534.61
2023-02-21T01:44:32.741Z,534.76
2023-02-21T01:44:43.737Z,534.73
2023-02-21T01:44:54.748Z,534.86
2023-02-21T01:45:05.762Z,534.93
2023-02-21T01:45:16.760Z,534.91
2023-02-21T01:45:27.819Z,534.91
2023-02-21T01:45:39.773Z,534.94
2023-02-21T01:45:50.793Z,535.08
2023-02-21T01:46:02.820Z,534.94
2023-02-21T01:46:13.857Z,535.00
2023-02-21T01:46:25.755Z,535.46
2023-02-21T01:46:36.755Z,535.49
2023-02-21T01:46:47.754Z,535.54
2023-02-21T01:46:58.747Z,535.56
2023-02-21T01:47:09.741Z,535.51
2023-02-21T01:47:20.746Z,535.54
2023-02-21T01:47:31.741Z,535.65
2023-02-21T01:47:43.795Z,535.55
2023-02-21T01:47:55.766Z,535.42
2023-02-21T01:48:07.731Z,535.63
2023-02-21T01:48:18.734Z,535.59
2023-02-21T01:48:29.737Z,535.69
2023-02-21T01:48:40.734Z,535.67
2023-02-21T01:48:53.742Z,535.78
2023-02-21T01:49:02.747Z,535.79
2023-02-21T01:49:14.735Z,535.89
2023-02-21T01:49:25.734Z,535.76
2023-02-21T01:49:36.736Z,535.69
2023-02-21T01:49:47.740Z,535.56
2023-02-21T01:49:58.737Z,535.70
2023-02-21T01:50:09.742Z,535.83
2023-02-21T01:50:20.739Z,535.73
2023-02-21T01:50:31.784Z,535.75
2023-02-21T01:50:43.746Z,535.85
2023-02-21T01:50:54.763Z,535.98
2023-02-21T01:51:05.762Z,536.00
2023-02-21T01:51:16.818Z,535.85
2023-02-21T01:51:27.718Z,535.66
2023-02-21T01:51:38.722Z,535.52
2023-02-21T01:51:49.717Z,535.49
2023-02-21T01:52:00.725Z,535.80
2023-02-21T01:52:11.726Z,535.54
2023-02-21T01:52:22.730Z,535.26
2023-02-21T01:52:33.744Z,535.42
2023-02-21T01:52:44.744Z,535.40
2023-02-21T01:52:55.736Z,535.20
2023-02-21T01:53:06.732Z,535.19
2023-02-21T01:53:17.720Z,535.28
2023-02-21T01:53:28.787Z,535.22
2023-02-21T01:53:40.764Z,535.29
2023-02-21T01:53:51.775Z,534.92
2023-02-21T01:54:02.768Z,534.57
2023-02-21T01:54:14.762Z,534.96
2023-02-21T01:54:25.759Z,535.28
2023-02-21T01:54:36.776Z,535.09
2023-02-21T01:54:48.733Z,534.87
2023-02-21T01:54:59.748Z,534.81
2023-02-21T01:55:10.754Z,534.88
2023-02-21T01:55:21.757Z,535.06
2023-02-21T01:55:32.750Z,534.84
2023-02-21T01:55:43.739Z,534.76
2023-02-21T01:55:54.737Z,534.63
2023-02-21T01:56:05.747Z,534.65
2023-02-21T01:56:16.771Z,534.64
2023-02-21T01:56:27.761Z,534.90
2023-02-21T01:56:38.762Z,535.16
2023-02-21T01:56:49.763Z,534.69
2023-02-21T01:57:00.760Z,534.28
2023-02-21T01:57:11.745Z,534.47
2023-02-21T01:57:22.751Z,534.89
2023-02-21T01:57:33.762Z,534.96
2023-02-21T01:57:45.743Z,534.93
2023-02-21T01:57:56.740Z,535.17
2023-02-21T01:58:07.747Z,535.27
2023-02-21T01:58:18.753Z,535.19
2023-02-21T01:58:29.762Z,534.94
2023-02-21T01:58:40.770Z,534.96
2023-02-21T01:58:51.769Z,534.99
2023-02-21T01:59:02.767Z,534.70
2023-02-21T01:59:13.773Z,535.10
2023-02-21T01:59:24.764Z,535.13
2023-02-21T01:59:35.776Z,534.96
2023-02-21T01:59:47.743Z,534.89
2023-02-21T01:59:58.747Z,535.20
2023-02-21T02:00:09.749Z,535.13
2023-02-21T02:00:20.746Z,534.84
2023-02-21T02:00:32.750Z,534.49
2023-02-21T02:00:43.752Z,534.97
2023-02-21T02:00:54.753Z,535.26
2023-02-21T02:01:05.751Z,534.97
2023-02-21T02:01:17.864Z,535.03
2023-02-21T02:01:29.768Z,534.92
2023-02-21T02:01:40.749Z,534.97
2023-02-21T02:01:51.812Z,535.03
2023-02-21T02:02:03.814Z,534.97
2023-02-21T02:02:15.790Z,534.97
2023-02-21T02:02:27.748Z,535.06
2023-02-21T02:02:38.750Z,534.94
2023-02-21T02:02:49.762Z,534.97
2023-02-21T02:03:00.771Z,535.11
2023-02-21T02:03:11.764Z,535.27
2023-02-21T02:03:22.774Z,535.29
2023-02-21T02:03:34.748Z,535.20
2023-02-21T02:03:45.769Z,535.32
2023-02-21T02:03:56.770Z,535.41
2023-02-21T02:04:07.802Z,535.36
2023-02-21T02:04:19.859Z,535.41
2023-02-21T02:04:30.773Z,535.19
2023-02-21T02:04:42.782Z,535.17
2023-02-21T02:04:54.762Z,535.38
2023-02-21T02:05:05.762Z,535.23
2023-02-21T02:05:17.747Z,535.13
2023-02-21T02:05:28.748Z,535.07
2023-02-21T02:05:39.736Z,535.03
2023-02-21T02:05:50.754Z,535.05
2023-02-21T02:06:01.768Z,535.12
2023-02-21T02:06:12.774Z,535.14
2023-02-21T02:06:23.769Z,534.96
2023-02-21T02:06:34.756Z,534.87
2023-02-21T02:06:45.761Z,535.04
2023-02-21T02:06:57.746Z,535.00
2023-02-21T02:07:08.754Z,535.16
2023-02-21T02:07:19.769Z,535.50
2023-02-21T02:07:30.765Z,535.31
2023-02-21T02:07:41.755Z,535.09
2023-02-21T02:07:52.757Z,535.33
2023-02-21T02:08:03.763Z,535.40
2023-02-21T02:08:14.769Z,535.42
2023-02-21T02:08:25.757Z,535.35
2023-02-21T02:08:36.762Z,535.36
2023-02-21T02:08:47.775Z,535.36
2023-02-21T02:08:58.757Z,535.33
2023-02-21T02:09:09.761Z,535.27
2023-02-21T02:09:20.756Z,535.24
2023-02-21T02:09:31.760Z,535.22
2023-02-21T02:09:42.755Z,535.33
2023-02-21T02:09:53.771Z,535.13
2023-02-21T02:10:04.777Z,535.09
2023-02-21T02:10:16.742Z,535.15
2023-02-21T02:10:27.752Z,535.40
2023-02-21T02:10:38.767Z,535.44
2023-02-21T02:10:50.740Z,535.47
2023-02-21T02:11:01.740Z,535.54
2023-02-21T02:11:13.173Z,535.56
2023-02-21T02:11:23.728Z,535.24
2023-02-21T02:11:34.720Z,535.21
2023-02-21T02:11:45.804Z,535.35
2023-02-21T02:11:57.767Z,535.48
2023-02-21T02:12:08.765Z,535.46
2023-02-21T02:12:19.765Z,535.33
2023-02-21T02:12:31.751Z,535.07
2023-02-21T02:12:42.752Z,535.43
2023-02-21T02:12:53.766Z,535.60
2023-02-21T02:13:04.765Z,535.78
2023-02-21T02:13:15.767Z,535.60
2023-02-21T02:13:26.765Z,535.63
2023-02-21T02:13:37.772Z,535.27
2023-02-21T02:13:48.768Z,535.31
2023-02-21T02:14:00.737Z,535.37
2023-02-21T02:14:11.755Z,535.25
2023-02-21T02:14:22.771Z,535.35
2023-02-21T02:14:33.768Z,535.41
2023-02-21T02:14:44.774Z,535.52
2023-02-21T02:14:56.750Z,535.54
2023-02-21T02:15:07.762Z,535.28
2023-02-21T02:15:18.756Z,535.25
2023-02-21T02:15:29.743Z,535.39
2023-02-21T02:15:40.784Z,535.36
2023-02-21T02:15:51.836Z,535.41
2023-02-21T02:16:03.864Z,535.46
2023-02-21T02:16:14.906Z,535.35
2023-02-21T02:16:25.770Z,535.35
2023-02-21T02:16:36.771Z,535.40
2023-02-21T02:16:47.775Z,535.57
2023-02-21T02:16:58.771Z,535.40
2023-02-21T02:17:09.780Z,535.46
2023-02-21T02:17:20.763Z,535.52
2023-02-21T02:17:31.756Z,535.36
2023-02-21T02:17:42.807Z,535.35
2023-02-21T02:17:54.762Z,535.29
2023-02-21T02:18:05.773Z,535.16
2023-02-21T02:18:16.764Z,535.17
2023-02-21T02:18:28.754Z,534.95
2023-02-21T02:18:39.758Z,535.00
2023-02-21T02:18:50.760Z,535.08
2023-02-21T02:19:01.754Z,535.03
2023-02-21T02:19:12.783Z,534.89
2023-02-21T02:19:24.799Z,534.81
2023-02-21T02:19:35.780Z,534.83
2023-02-21T02:19:46.806Z,534.83
2023-02-21T02:19:58.801Z,534.65
2023-02-21T02:20:10.765Z,534.81